Time;durP1;ratioP1;P1;durP2;ratioP2;P2;SDS_P1;SDS_P2;PMS_P1;PMS_P2;Temp;Humidity;BMP_temperature;BMP_pressure;BME280_temperature;BME280_humidity;BME280_pressure;Samples;Min_cycle;Max_cycle;Signal;HPM_P1;HPM_P2
2023/08/30 00:00:45;;;;;;;11.10;7.97;;;14.50;99.90;;;;;;5033019;28;20695;-75
2023/08/30 00:03:12;;;;;;;9.90;7.78;;;14.40;99.90;;;;;;5029785;28;20048;-74
2023/08/30 00:05:41;;;;;;;11.13;7.55;;;14.40;99.90;;;;;;5027530;28;20780;-75
2023/08/30 00:08:07;;;;;;;12.00;8.38;;;14.40;99.90;;;;;;5044953;28;20040;-75
2023/08/30 00:10:33;;;;;;;8.77;7.05;;;14.40;99.90;;;;;;5027819;28;20442;-75
2023/08/30 00:12:59;;;;;;;10.55;7.40;;;14.30;99.90;;;;;;5046547;28;20036;-76
2023/08/30 00:15:25;;;;;;;12.20;6.45;;;14.30;99.90;;;;;;5028164;28;20059;-76
2023/08/30 00:17:54;;;;;;;9.15;6.32;;;14.20;99.90;;;;;;5030773;28;20045;-75
2023/08/30 00:20:20;;;;;;;11.00;6.93;;;14.20;99.90;;;;;;5044781;28;20076;-75
2023/08/30 00:22:48;;;;;;;10.52;6.65;;;14.20;99.90;;;;;;5027259;28;20060;-75
2023/08/30 00:25:14;;;;;;;7.93;6.80;;;14.10;99.90;;;;;;5045436;28;20048;-75
2023/08/30 00:27:40;;;;;;;9.75;6.80;;;14.10;99.90;;;;;;5057629;28;20516;-76
2023/08/30 00:30:08;;;;;;;12.10;7.60;;;14.00;99.90;;;;;;5046354;28;20142;-75
2023/08/30 00:32:33;;;;;;;9.57;7.20;;;14.00;99.90;;;;;;5046270;28;20033;-76
2023/08/30 00:34:59;;;;;;;9.32;6.65;;;13.90;99.90;;;;;;5025938;28;20521;-76
2023/08/30 00:37:25;;;;;;;9.93;6.65;;;13.90;99.90;;;;;;5045619;28;20099;-76
2023/08/30 00:39:50;;;;;;;8.73;6.95;;;13.90;99.90;;;;;;5045608;28;20053;-76
2023/08/30 00:42:16;;;;;;;9.20;6.75;;;13.90;99.90;;;;;;5040734;28;20068;-75
2023/08/30 00:44:42;;;;;;;8.48;6.90;;;13.80;99.90;;;;;;5047993;28;20065;-76
2023/08/30 00:47:07;;;;;;;9.43;7.00;;;13.80;99.90;;;;;;5027929;28;20045;-75
2023/08/30 00:49:33;;;;;;;9.75;7.97;;;13.80;99.90;;;;;;5028239;28;20103;-75
2023/08/30 00:52:03;;;;;;;8.57;6.47;;;13.80;99.90;;;;;;5044887;28;20064;-76
2023/08/30 00:54:29;;;;;;;8.18;7.20;;;13.80;99.90;;;;;;5040000;28;20072;-75
2023/08/30 00:56:55;;;;;;;10.82;7.70;;;13.80;99.90;;;;;;5025718;28;20096;-76
2023/08/30 00:59:21;;;;;;;10.68;8.30;;;13.70;99.90;;;;;;5021395;28;20060;-76
2023/08/30 01:01:48;;;;;;;9.70;6.88;;;13.70;99.90;;;;;;5017512;28;20566;-75
2023/08/30 01:04:14;;;;;;;11.93;7.53;;;13.60;99.90;;;;;;5038870;28;20072;-76
2023/08/30 01:06:40;;;;;;;8.90;7.05;;;13.60;99.90;;;;;;5038081;28;20040;-76
2023/08/30 01:09:07;;;;;;;11.13;7.25;;;13.60;99.90;;;;;;5019633;28;20069;-75
2023/08/30 01:11:43;;;;;;;12.52;8.23;;;13.50;99.90;;;;;;5044363;28;20561;-75
2023/08/30 01:14:17;;;;;;;10.77;8.10;;;13.50;99.90;;;;;;5035441;28;20052;-75
2023/08/30 01:16:43;;;;;;;11.25;7.45;;;13.50;99.90;;;;;;5022801;28;20037;-75
2023/08/30 01:19:33;;;;;;;9.48;7.82;;;13.50;99.90;;;;;;5029610;28;20435;-75
2023/08/30 01:22:08;;;;;;;11.23;8.65;;;13.40;99.90;;;;;;5045617;28;20048;-76
2023/08/30 01:24:57;;;;;;;10.65;7.55;;;13.40;99.90;;;;;;5029478;28;20124;-75
2023/08/30 01:27:25;;;;;;;9.70;8.38;;;13.30;99.90;;;;;;5044851;28;20040;-76
2023/08/30 01:29:54;;;;;;;9.55;8.07;;;13.30;99.90;;;;;;5045472;28;20055;-76
2023/08/30 01:32:22;;;;;;;8.98;7.72;;;13.20;99.90;;;;;;5042269;28;20080;-76
2023/08/30 01:34:49;;;;;;;10.45;8.13;;;13.10;99.90;;;;;;5020914;28;20037;-77
2023/08/30 01:37:16;;;;;;;9.52;8.32;;;13.00;99.90;;;;;;5039487;28;20049;-76
2023/08/30 01:39:43;;;;;;;12.05;8.93;;;13.00;99.90;;;;;;5038373;28;20077;-76
2023/08/30 01:42:09;;;;;;;10.27;8.68;;;12.90;99.90;;;;;;5040685;28;20037;-76
2023/08/30 01:44:37;;;;;;;10.77;8.88;;;12.90;99.90;;;;;;5030837;28;20110;-76
2023/08/30 01:47:03;;;;;;;9.50;8.13;;;12.90;99.90;;;;;;5045404;28;20095;-74
2023/08/30 01:49:34;;;;;;;10.73;8.95;;;12.90;99.90;;;;;;5027111;28;20064;-75
2023/08/30 01:52:01;;;;;;;10.38;8.73;;;12.90;99.90;;;;;;5042527;28;20136;-75
2023/08/30 01:54:28;;;;;;;12.02;10.07;;;12.80;99.90;;;;;;5042656;28;20041;-76
2023/08/30 01:56:54;;;;;;;13.30;9.73;;;12.80;99.90;;;;;;5046019;28;20060;-75
2023/08/30 01:59:19;;;;;;;12.65;9.80;;;12.70;99.90;;;;;;5047046;28;20037;-75
2023/08/30 02:01:45;;;;;;;11.93;9.45;;;12.70;99.90;;;;;;5029243;28;20132;-75
2023/08/30 02:04:10;;;;;;;10.85;9.27;;;12.60;99.90;;;;;;5042055;28;20144;-76
2023/08/30 02:06:45;;;;;;;14.45;9.48;;;12.50;99.90;;;;;;5026085;28;20041;-76
2023/08/30 02:09:32;;;;;;;11.70;9.48;;;12.50;99.90;;;;;;5051803;28;20045;-75
2023/08/30 02:12:04;;;;;;;13.63;10.05;;;12.40;99.90;;;;;;5033851;28;20065;-75
2023/08/30 02:14:32;;;;;;;16.80;10.70;;;12.30;99.90;;;;;;5024996;28;20608;-75
2023/08/30 02:16:58;;;;;;;12.90;10.65;;;12.40;99.90;;;;;;5011726;28;20098;-75
2023/08/30 02:19:24;;;;;;;14.02;9.82;;;12.30;99.90;;;;;;5031028;28;20033;-75
2023/08/30 02:21:50;;;;;;;14.70;10.15;;;12.30;99.90;;;;;;5032251;28;20052;-75
2023/08/30 02:24:15;;;;;;;13.55;10.32;;;12.20;99.90;;;;;;5045139;28;20041;-75
2023/08/30 02:26:41;;;;;;;13.70;10.35;;;12.30;99.90;;;;;;5051025;28;20051;-76
2023/08/30 02:29:08;;;;;;;13.93;11.10;;;12.30;99.90;;;;;;5032663;28;20044;-75
2023/08/30 02:31:33;;;;;;;13.23;10.20;;;12.30;99.90;;;;;;5050967;28;20124;-75
2023/08/30 02:33:59;;;;;;;13.18;10.82;;;12.40;99.90;;;;;;5049541;28;20136;-74
2023/08/30 02:36:25;;;;;;;12.85;11.25;;;12.40;99.90;;;;;;5045441;28;20037;-75
2023/08/30 02:38:50;;;;;;;10.82;9.73;;;12.50;99.90;;;;;;5048648;28;20086;-75
2023/08/30 02:41:16;;;;;;;12.45;10.07;;;12.50;99.90;;;;;;5052386;28;20415;-75
2023/08/30 02:43:42;;;;;;;12.57;10.50;;;12.60;99.90;;;;;;5054067;28;20299;-75
2023/08/30 02:46:07;;;;;;;13.63;10.20;;;12.60;99.90;;;;;;5053955;28;20049;-75
2023/08/30 02:48:33;;;;;;;14.57;10.68;;;12.60;99.90;;;;;;5045060;28;20066;-75
2023/08/30 02:50:59;;;;;;;13.07;10.30;;;12.70;99.90;;;;;;5070851;28;20049;-75
2023/08/30 02:53:25;;;;;;;14.38;10.80;;;12.70;99.90;;;;;;5061421;28;20134;-75
2023/08/30 02:55:50;;;;;;;13.07;10.60;;;12.70;99.90;;;;;;5044852;28;20041;-75
2023/08/30 02:58:16;;;;;;;13.40;11.27;;;12.90;99.90;;;;;;5045256;28;20040;-75
2023/08/30 03:00:42;;;;;;;15.43;12.52;;;12.90;99.90;;;;;;5048979;28;20407;-77
2023/08/30 03:03:07;;;;;;;14.85;11.88;;;13.00;99.90;;;;;;5043206;28;20455;-76
2023/08/30 03:05:33;;;;;;;13.48;10.88;;;13.10;99.90;;;;;;5015361;28;20511;-76
2023/08/30 03:07:59;;;;;;;15.35;11.95;;;13.10;99.90;;;;;;5043494;28;20067;-76
2023/08/30 03:10:24;;;;;;;19.85;12.55;;;13.20;99.90;;;;;;5044950;28;20491;-76
2023/08/30 03:12:51;;;;;;;15.30;12.63;;;13.20;99.90;;;;;;5052105;28;20496;-76
2023/08/30 03:15:16;;;;;;;14.07;12.40;;;13.20;99.90;;;;;;5042126;28;20037;-76
2023/08/30 03:17:42;;;;;;;15.90;12.18;;;13.30;99.90;;;;;;5034113;28;20052;-76
2023/08/30 03:20:08;;;;;;;16.25;12.60;;;13.40;99.90;;;;;;5048493;28;20086;-76
2023/08/30 03:22:34;;;;;;;16.33;12.65;;;13.30;99.90;;;;;;5030021;28;20052;-76
2023/08/30 03:25:02;;;;;;;14.70;11.32;;;13.30;99.90;;;;;;5050239;28;20048;-76
2023/08/30 03:27:28;;;;;;;17.95;12.82;;;13.40;99.90;;;;;;5050495;28;20044;-76
2023/08/30 03:29:55;;;;;;;15.82;12.73;;;13.40;99.90;;;;;;5045168;28;20037;-75
2023/08/30 03:32:21;;;;;;;16.73;12.55;;;13.50;99.90;;;;;;5018455;28;20056;-74
2023/08/30 03:34:48;;;;;;;17.38;13.48;;;13.50;99.90;;;;;;5041780;28;20051;-74
2023/08/30 03:37:16;;;;;;;17.20;12.68;;;13.50;99.90;;;;;;5027135;28;20562;-74
2023/08/30 03:39:42;;;;;;;17.42;13.45;;;13.50;99.90;;;;;;5029154;28;20276;-74
2023/08/30 03:42:08;;;;;;;20.80;13.77;;;13.40;99.90;;;;;;5025165;28;20128;-75
2023/08/30 03:44:34;;;;;;;17.40;13.85;;;13.50;99.90;;;;;;5042940;28;20128;-76
2023/08/30 03:47:00;;;;;;;17.08;13.35;;;13.50;99.90;;;;;;5045237;28;20040;-75
2023/08/30 03:49:26;;;;;;;18.45;13.88;;;13.50;99.90;;;;;;5011746;28;20049;-75
2023/08/30 03:51:52;;;;;;;17.85;14.55;;;13.40;99.90;;;;;;5051303;28;20043;-75
2023/08/30 03:54:17;;;;;;;18.38;14.30;;;13.50;99.90;;;;;;5025617;28;20037;-75
2023/08/30 03:56:44;;;;;;;19.55;14.48;;;13.50;99.90;;;;;;5029001;28;20044;-75
2023/08/30 03:59:10;;;;;;;19.73;14.98;;;13.50;99.90;;;;;;5047213;28;20033;-74
2023/08/30 04:01:35;;;;;;;18.20;14.95;;;13.40;99.90;;;;;;5026018;28;20068;-74
2023/08/30 04:04:01;;;;;;;17.67;15.07;;;13.40;99.90;;;;;;5027776;28;20041;-74
2023/08/30 04:06:27;;;;;;;19.35;14.05;;;13.50;99.90;;;;;;5026872;28;20614;-75
2023/08/30 04:08:52;;;;;;;18.35;14.98;;;13.50;99.90;;;;;;5040737;28;20132;-74
2023/08/30 04:11:18;;;;;;;23.83;15.10;;;13.50;99.90;;;;;;5041748;28;20194;-74
2023/08/30 04:13:44;;;;;;;19.63;14.93;;;13.50;99.90;;;;;;5042008;28;20122;-74
2023/08/30 04:16:10;;;;;;;21.25;15.20;;;13.60;99.90;;;;;;5045460;28;20380;-74
2023/08/30 04:18:36;;;;;;;17.45;15.23;;;13.60;99.90;;;;;;5047352;28;20091;-74
2023/08/30 04:21:02;;;;;;;18.00;13.98;;;13.50;99.90;;;;;;5043442;28;20049;-73
2023/08/30 04:23:28;;;;;;;16.98;13.98;;;13.50;99.90;;;;;;5021473;28;20430;-73
2023/08/30 04:25:54;;;;;;;20.35;15.30;;;13.60;99.90;;;;;;5043650;28;20155;-74
2023/08/30 04:28:19;;;;;;;22.02;15.82;;;13.60;99.90;;;;;;5043655;28;20128;-74
2023/08/30 04:30:45;;;;;;;18.65;14.85;;;13.60;99.90;;;;;;5043123;28;20053;-73
2023/08/30 04:33:11;;;;;;;19.02;15.23;;;13.60;99.90;;;;;;5051343;28;20044;-74
2023/08/30 04:35:37;;;;;;;18.92;15.40;;;13.60;99.90;;;;;;5042397;28;20121;-74
2023/08/30 04:38:03;;;;;;;19.15;14.85;;;13.60;99.90;;;;;;5021229;28;20053;-74
2023/08/30 04:40:30;;;;;;;20.88;14.50;;;13.60;99.90;;;;;;5022371;28;20094;-74
2023/08/30 04:42:56;;;;;;;19.90;15.25;;;13.70;99.90;;;;;;5023104;28;20049;-74
2023/08/30 04:45:22;;;;;;;17.70;14.00;;;13.60;99.90;;;;;;5039941;28;20037;-74
2023/08/30 04:47:48;;;;;;;17.92;14.70;;;13.60;99.90;;;;;;5045871;28;20059;-73
2023/08/30 04:50:14;;;;;;;19.25;14.43;;;13.60;99.90;;;;;;5042429;28;20041;-73
2023/08/30 04:52:40;;;;;;;17.55;13.70;;;13.60;99.90;;;;;;5010405;28;20094;-74
2023/08/30 04:55:06;;;;;;;18.38;14.75;;;13.60;99.90;;;;;;5008044;28;20056;-73
2023/08/30 04:57:32;;;;;;;19.05;13.77;;;13.60;99.90;;;;;;5039915;28;20045;-73
2023/08/30 04:59:57;;;;;;;19.58;14.35;;;13.60;99.90;;;;;;5026583;28;20051;-73
2023/08/30 05:02:23;;;;;;;21.63;14.88;;;13.60;99.90;;;;;;5028199;28;20076;-74
2023/08/30 05:04:49;;;;;;;18.65;14.02;;;13.60;99.90;;;;;;5021484;28;20041;-74
2023/08/30 05:07:14;;;;;;;19.15;14.88;;;13.50;99.90;;;;;;5038684;28;20230;-73
2023/08/30 05:09:40;;;;;;;20.98;15.50;;;13.60;99.90;;;;;;5039972;28;20044;-75
2023/08/30 05:12:07;;;;;;;18.63;15.00;;;13.60;99.90;;;;;;5045478;28;20099;-75
2023/08/30 05:14:32;;;;;;;19.08;15.25;;;13.60;99.90;;;;;;5035666;28;20052;-75
2023/08/30 05:16:58;;;;;;;20.13;14.82;;;13.60;99.90;;;;;;5041502;28;20037;-75
2023/08/30 05:19:24;;;;;;;16.98;14.02;;;13.50;99.90;;;;;;5045399;28;20082;-75
2023/08/30 05:21:51;;;;;;;17.77;14.40;;;13.60;99.90;;;;;;5026577;28;20246;-75
2023/08/30 05:24:17;;;;;;;19.25;14.95;;;13.60;99.90;;;;;;5042561;28;20037;-75
2023/08/30 05:26:43;;;;;;;18.35;15.70;;;13.60;99.90;;;;;;5047637;28;20048;-75
2023/08/30 05:29:08;;;;;;;18.67;15.57;;;13.60;99.90;;;;;;5027941;28;20052;-75
2023/08/30 05:31:34;;;;;;;18.55;15.15;;;13.60;99.90;;;;;;5041982;28;20112;-74
2023/08/30 05:33:59;;;;;;;19.55;14.90;;;13.60;99.90;;;;;;5043524;28;20044;-74
2023/08/30 05:36:25;;;;;;;22.35;14.88;;;13.60;99.90;;;;;;5040467;28;20056;-75
2023/08/30 05:38:51;;;;;;;20.55;15.15;;;13.70;99.90;;;;;;5045729;28;20103;-75
2023/08/30 05:41:16;;;;;;;25.15;15.45;;;13.70;99.90;;;;;;5032543;28;20041;-75
2023/08/30 05:43:43;;;;;;;22.65;16.23;;;13.70;99.90;;;;;;5035822;28;20443;-75
2023/08/30 05:46:14;;;;;;;18.00;13.52;;;13.70;99.90;;;;;;5031417;28;20036;-74
2023/08/30 05:48:40;;;;;;;17.73;14.23;;;13.70;99.90;;;;;;5049439;28;20522;-74
2023/08/30 05:51:05;;;;;;;20.25;14.30;;;13.70;99.90;;;;;;5048498;28;20156;-74
2023/08/30 05:53:31;;;;;;;17.58;13.75;;;13.70;99.90;;;;;;5045523;28;20053;-75
2023/08/30 05:55:57;;;;;;;21.10;14.82;;;13.70;99.90;;;;;;5055413;28;20052;-74
2023/08/30 05:58:22;;;;;;;20.38;13.88;;;13.70;99.90;;;;;;5052611;28;20099;-74
2023/08/30 06:00:48;;;;;;;20.42;13.98;;;13.70;99.90;;;;;;5030783;28;20130;-74
2023/08/30 06:03:14;;;;;;;17.52;13.07;;;13.80;99.90;;;;;;5047372;28;20033;-74
2023/08/30 06:05:39;;;;;;;17.85;13.90;;;13.80;99.90;;;;;;5050273;28;20055;-74
2023/08/30 06:08:05;;;;;;;16.48;13.57;;;13.70;99.90;;;;;;5043760;28;20045;-75
2023/08/30 06:10:31;;;;;;;18.40;13.95;;;13.70;99.90;;;;;;5018953;28;20051;-74
2023/08/30 06:12:57;;;;;;;22.60;14.10;;;13.80;99.90;;;;;;5053634;28;20162;-73
2023/08/30 06:15:22;;;;;;;17.95;13.73;;;13.80;99.90;;;;;;5047128;28;20041;-75
2023/08/30 06:17:49;;;;;;;19.45;14.15;;;13.90;99.90;;;;;;5026416;28;20512;-76
2023/08/30 06:20:15;;;;;;;17.80;13.75;;;13.90;99.90;;;;;;5048581;28;20051;-76
2023/08/30 06:22:42;;;;;;;21.08;14.13;;;13.90;99.90;;;;;;5039646;28;20048;-76
2023/08/30 06:25:09;;;;;;;14.95;12.90;;;13.90;99.90;;;;;;5048543;28;20290;-75
2023/08/30 06:27:43;;;;;;;19.58;13.85;;;13.90;99.90;;;;;;5047610;28;20403;-75
2023/08/30 06:30:10;;;;;;;19.30;14.25;;;14.00;99.90;;;;;;5028346;28;20049;-75
2023/08/30 06:32:36;;;;;;;18.35;13.13;;;14.20;99.90;;;;;;5029132;28;20051;-75
2023/08/30 06:35:02;;;;;;;17.05;13.07;;;14.40;99.90;;;;;;5032428;28;20040;-76
2023/08/30 06:37:28;;;;;;;18.55;12.07;;;14.60;99.90;;;;;;5050322;28;20045;-75
2023/08/30 06:39:53;;;;;;;17.25;12.48;;;14.80;99.90;;;;;;5028130;28;20051;-76
2023/08/30 06:42:19;;;;;;;15.57;12.55;;;15.00;99.90;;;;;;5029697;28;20090;-77
2023/08/30 06:44:45;;;;;;;19.58;12.88;;;15.30;99.90;;;;;;5030943;28;20419;-76
2023/08/30 06:47:10;;;;;;;16.08;11.82;;;15.50;99.90;;;;;;5047778;28;20432;-77
2023/08/30 06:49:36;;;;;;;17.55;11.65;;;15.80;99.90;;;;;;5028318;28;20033;-77
2023/08/30 06:52:03;;;;;;;18.63;12.27;;;15.90;99.90;;;;;;5043825;28;20051;-75
2023/08/30 06:54:30;;;;;;;16.42;12.00;;;16.00;99.90;;;;;;5045643;28;20041;-77
2023/08/30 06:57:02;;;;;;;18.92;11.65;;;16.20;99.90;;;;;;5042761;28;20052;-77
2023/08/30 06:59:28;;;;;;;19.00;11.63;;;16.20;99.90;;;;;;5046482;28;20050;-77
2023/08/30 07:01:54;;;;;;;15.68;11.65;;;16.30;99.90;;;;;;5048864;28;20045;-77
2023/08/30 07:04:20;;;;;;;16.77;11.85;;;16.40;99.90;;;;;;5047123;28;20131;-77
2023/08/30 07:06:46;;;;;;;16.52;11.02;;;16.40;99.90;;;;;;5044318;28;20120;-75
2023/08/30 07:09:11;;;;;;;16.35;10.40;;;16.30;99.90;;;;;;5048381;28;20051;-76
2023/08/30 07:11:38;;;;;;;14.98;10.65;;;16.30;99.90;;;;;;5020869;28;20052;-76
2023/08/30 07:14:04;;;;;;;15.20;10.88;;;16.20;99.90;;;;;;5044454;28;20044;-75
2023/08/30 07:16:31;;;;;;;13.27;10.70;;;16.20;99.90;;;;;;5027421;28;20050;-75
2023/08/30 07:18:58;;;;;;;15.70;10.63;;;16.10;99.90;;;;;;5047589;28;20057;-76
2023/08/30 07:21:23;;;;;;;15.23;10.98;;;16.10;99.90;;;;;;5044407;28;20783;-76
2023/08/30 07:23:49;;;;;;;17.10;11.23;;;16.00;99.90;;;;;;5038639;28;20075;-76
2023/08/30 07:26:15;;;;;;;13.85;10.52;;;16.00;99.90;;;;;;5048087;28;20535;-76
2023/08/30 07:28:41;;;;;;;13.82;10.98;;;16.00;99.90;;;;;;5048302;28;20287;-76
2023/08/30 07:31:06;;;;;;;14.05;10.43;;;16.00;99.90;;;;;;5044023;28;20045;-75
2023/08/30 07:33:32;;;;;;;15.82;11.05;;;16.00;99.90;;;;;;5025823;28;20069;-76
2023/08/30 07:35:58;;;;;;;16.75;11.68;;;16.10;99.90;;;;;;5020933;28;20047;-74
2023/08/30 07:38:24;;;;;;;13.32;10.30;;;16.10;99.90;;;;;;5025952;28;20484;-76
2023/08/30 07:40:50;;;;;;;14.13;10.48;;;16.10;99.90;;;;;;5042878;28;20055;-75
2023/08/30 07:43:16;;;;;;;13.73;10.80;;;16.20;99.90;;;;;;5044161;28;20051;-75
2023/08/30 07:45:41;;;;;;;14.52;10.70;;;16.20;99.90;;;;;;5028394;28;20053;-76
2023/08/30 07:48:07;;;;;;;15.27;9.95;;;16.30;99.90;;;;;;5025740;28;20385;-75
2023/08/30 07:50:33;;;;;;;14.15;10.88;;;16.30;99.90;;;;;;5049602;28;20044;-76
2023/08/30 07:52:58;;;;;;;15.15;10.23;;;16.50;99.90;;;;;;5026589;28;20041;-76
2023/08/30 07:55:24;;;;;;;14.35;10.98;;;16.50;99.90;;;;;;5044360;28;20033;-77
2023/08/30 07:57:49;;;;;;;16.90;11.43;;;16.70;99.90;;;;;;5047357;28;20416;-76
2023/08/30 08:00:15;;;;;;;14.68;11.05;;;16.70;99.90;;;;;;5022389;28;20094;-76
2023/08/30 08:02:41;;;;;;;15.55;10.80;;;16.80;99.90;;;;;;5021656;28;20045;-76
2023/08/30 08:05:07;;;;;;;15.55;10.90;;;16.90;99.90;;;;;;5046264;28;20559;-76
2023/08/30 08:07:33;;;;;;;15.55;10.85;;;17.00;99.90;;;;;;5043585;28;20091;-75
2023/08/30 08:09:59;;;;;;;14.70;10.70;;;17.10;99.90;;;;;;5024736;28;20037;-76
2023/08/30 08:12:27;;;;;;;14.48;10.43;;;17.20;99.90;;;;;;5023921;28;20515;-75
2023/08/30 08:14:52;;;;;;;15.05;9.75;;;17.20;99.90;;;;;;5044805;28;20075;-74
2023/08/30 08:17:18;;;;;;;12.15;8.68;;;17.20;99.90;;;;;;5040427;28;20120;-76
2023/08/30 08:19:44;;;;;;;12.63;8.73;;;17.30;99.90;;;;;;5040532;28;20493;-75
2023/08/30 08:22:10;;;;;;;11.55;8.65;;;17.20;99.90;;;;;;5024821;28;20076;-73
2023/08/30 08:24:36;;;;;;;10.43;8.30;;;17.20;99.90;;;;;;5011665;28;20514;-74
2023/08/30 08:27:02;;;;;;;14.80;9.15;;;17.20;99.90;;;;;;5012476;28;20066;-74
2023/08/30 08:29:28;;;;;;;14.15;9.57;;;17.10;99.90;;;;;;5043120;28;20400;-75
2023/08/30 08:31:54;;;;;;;12.20;8.85;;;17.00;99.90;;;;;;5042827;28;20037;-75
2023/08/30 08:34:19;;;;;;;12.82;8.10;;;16.80;99.90;;;;;;5021191;28;20115;-74
2023/08/30 08:36:45;;;;;;;14.60;8.98;;;16.70;99.90;;;;;;5040755;28;20850;-76
2023/08/30 08:39:11;;;;;;;13.30;8.63;;;16.50;99.90;;;;;;5039555;28;20049;-77
2023/08/30 08:41:42;;;;;;;10.80;8.20;;;16.40;99.90;;;;;;5026531;28;20041;-76
2023/08/30 08:44:08;;;;;;;13.88;8.30;;;16.20;99.90;;;;;;5025414;28;20033;-75
2023/08/30 08:46:38;;;;;;;10.85;7.90;;;16.10;99.90;;;;;;5025200;28;20059;-77
2023/08/30 08:49:15;;;;;;;12.32;7.78;;;15.90;99.90;;;;;;5038921;28;20076;-75
2023/08/30 08:51:43;;;;;;;13.32;8.23;;;15.90;99.90;;;;;;5003784;28;20044;-78
2023/08/30 08:54:10;;;;;;;12.05;7.68;;;15.90;99.90;;;;;;5022779;28;20493;-75
2023/08/30 08:56:39;;;;;;;12.18;8.30;;;15.90;99.90;;;;;;5039305;28;20060;-75
2023/08/30 08:59:08;;;;;;;11.88;7.50;;;15.90;99.90;;;;;;5038329;28;20033;-74
2023/08/30 09:01:41;;;;;;;10.07;7.10;;;16.00;99.90;;;;;;5044274;28;20579;-74
2023/08/30 09:04:11;;;;;;;10.27;6.95;;;16.10;99.90;;;;;;5022498;28;20049;-74
2023/08/30 09:06:39;;;;;;;8.25;6.70;;;16.20;99.90;;;;;;5041165;28;20048;-74
2023/08/30 09:09:06;;;;;;;10.88;7.05;;;16.20;99.90;;;;;;5038093;28;20041;-74
2023/08/30 09:11:32;;;;;;;10.90;6.35;;;16.20;99.90;;;;;;5013765;28;20055;-76
2023/08/30 09:13:58;;;;;;;10.05;6.25;;;16.20;99.90;;;;;;5044815;28;20084;-76
2023/08/30 09:16:24;;;;;;;10.05;6.28;;;16.20;99.90;;;;;;5044958;28;20558;-76
2023/08/30 09:19:03;;;;;;;7.53;5.72;;;16.30;99.90;;;;;;5026683;28;20049;-76
2023/08/30 09:21:29;;;;;;;8.90;7.07;;;16.30;99.90;;;;;;5046619;28;20056;-76
2023/08/30 09:24:03;;;;;;;8.52;5.85;;;16.30;99.90;;;;;;5018766;28;20536;-77
2023/08/30 09:26:34;;;;;;;6.90;5.57;;;16.30;99.90;;;;;;5042581;28;20037;-75
2023/08/30 09:29:08;;;;;;;8.55;6.18;;;16.30;99.90;;;;;;5026208;28;20102;-76
2023/08/30 09:31:40;;;;;;;8.85;6.13;;;16.20;99.90;;;;;;5040640;28;20220;-75
2023/08/30 09:34:06;;;;;;;10.05;6.10;;;16.20;99.90;;;;;;5025038;28;20048;-74
2023/08/30 09:36:39;;;;;;;8.55;6.55;;;16.20;99.90;;;;;;5023955;28;20401;-77
2023/08/30 09:39:11;;;;;;;11.25;6.85;;;16.10;99.90;;;;;;5026055;28;20052;-74
2023/08/30 09:41:40;;;;;;;11.63;7.45;;;16.00;99.90;;;;;;5040454;28;20101;-74
2023/08/30 09:44:13;;;;;;;11.98;8.45;;;16.10;99.90;;;;;;5034368;28;20158;-73
2023/08/30 09:46:52;;;;;;;12.45;8.15;;;16.10;99.90;;;;;;5038103;28;20516;-73
2023/08/30 09:49:26;;;;;;;11.27;8.13;;;16.10;99.90;;;;;;5038407;28;20649;-72
2023/08/30 09:51:53;;;;;;;14.25;8.90;;;16.10;99.90;;;;;;5042965;28;20099;-72
2023/08/30 09:54:31;;;;;;;12.48;7.95;;;16.00;99.90;;;;;;5021655;28;20049;-72
2023/08/30 09:56:59;;;;;;;10.93;7.60;;;16.00;99.90;;;;;;5004070;28;20037;-73
2023/08/30 09:59:26;;;;;;;12.05;8.15;;;16.00;99.90;;;;;;5041224;28;20404;-74
2023/08/30 10:01:53;;;;;;;9.95;7.90;;;16.00;99.90;;;;;;5034549;28;20045;-74
2023/08/30 10:04:20;;;;;;;11.38;8.38;;;16.00;99.90;;;;;;5032287;28;20045;-72
2023/08/30 10:06:47;;;;;;;9.88;8.52;;;16.10;99.90;;;;;;5029161;28;20522;-74
2023/08/30 10:09:14;;;;;;;14.27;10.25;;;16.10;99.90;;;;;;5033216;28;20056;-75
2023/08/30 10:11:40;;;;;;;11.85;9.27;;;16.20;99.90;;;;;;5039219;28;20041;-72
2023/08/30 10:14:07;;;;;;;12.48;10.25;;;16.10;99.90;;;;;;5037844;28;20076;-71
2023/08/30 10:16:42;;;;;;;13.02;9.55;;;16.00;99.90;;;;;;5036566;28;20048;-70
2023/08/30 10:19:14;;;;;;;12.75;8.27;;;16.00;99.90;;;;;;5035404;28;20168;-70
2023/08/30 10:21:41;;;;;;;11.93;8.88;;;15.90;99.90;;;;;;5040682;28;20149;-69
2023/08/30 10:24:11;;;;;;;13.43;8.77;;;15.90;99.90;;;;;;5017165;28;20091;-70
2023/08/30 10:26:38;;;;;;;10.50;7.78;;;15.90;99.90;;;;;;5029303;28;20590;-69
2023/08/30 10:29:05;;;;;;;11.35;7.65;;;15.90;99.90;;;;;;5041392;28;20040;-70
2023/08/30 10:31:31;;;;;;;11.52;7.63;;;15.80;99.90;;;;;;5026058;28;20071;-69
2023/08/30 10:33:56;;;;;;;10.27;7.88;;;15.80;99.90;;;;;;5044981;28;20269;-71
2023/08/30 10:36:26;;;;;;;12.38;8.88;;;15.80;99.90;;;;;;5040783;28;20098;-70
2023/08/30 10:38:55;;;;;;;11.20;8.20;;;15.70;99.90;;;;;;5043769;28;20061;-69
2023/08/30 10:41:30;;;;;;;10.82;8.88;;;15.80;99.90;;;;;;5039634;28;21387;-70
2023/08/30 10:43:56;;;;;;;14.73;10.05;;;15.70;99.90;;;;;;5040360;28;20045;-70
2023/08/30 10:46:36;;;;;;;11.48;9.07;;;15.80;99.90;;;;;;5044493;28;20053;-68
2023/08/30 10:49:14;;;;;;;12.48;9.50;;;15.70;99.90;;;;;;5040583;28;20059;-69
2023/08/30 10:51:41;;;;;;;14.00;10.02;;;15.80;99.90;;;;;;5022203;28;20056;-69
2023/08/30 10:54:15;;;;;;;14.13;9.13;;;15.80;99.90;;;;;;5020279;28;20530;-69
2023/08/30 10:56:54;;;;;;;13.02;9.15;;;15.80;99.90;;;;;;5045920;28;20045;-69
2023/08/30 10:59:20;;;;;;;13.13;9.07;;;15.90;99.90;;;;;;5046206;28;20080;-70
2023/08/30 11:01:47;;;;;;;10.80;8.55;;;15.90;99.90;;;;;;5025358;28;20045;-69
2023/08/30 11:04:16;;;;;;;13.43;9.73;;;16.00;99.90;;;;;;5025965;28;20045;-68
2023/08/30 11:06:50;;;;;;;11.52;9.43;;;16.00;99.90;;;;;;5047189;28;20048;-68
2023/08/30 11:09:17;;;;;;;12.70;8.75;;;16.20;99.90;;;;;;5032935;28;20049;-69
2023/08/30 11:11:45;;;;;;;12.85;9.32;;;16.20;99.90;;;;;;5027367;28;20182;-68
2023/08/30 11:14:10;;;;;;;11.05;8.82;;;16.30;99.90;;;;;;5046164;28;20082;-69
2023/08/30 11:16:37;;;;;;;11.48;8.63;;;16.30;99.90;;;;;;5046412;28;20049;-70
2023/08/30 11:19:04;;;;;;;12.77;9.48;;;16.20;99.90;;;;;;5024297;28;20511;-73
2023/08/30 11:21:48;;;;;;;12.15;9.25;;;16.20;99.90;;;;;;5040392;28;20128;-73
2023/08/30 11:24:15;;;;;;;12.93;8.75;;;16.20;99.90;;;;;;5041691;28;20123;-72
2023/08/30 11:26:40;;;;;;;12.60;10.30;;;16.10;99.90;;;;;;5044582;28;20068;-73
2023/08/30 11:29:07;;;;;;;11.00;9.25;;;16.00;99.90;;;;;;5027540;28;20465;-73
2023/08/30 11:31:33;;;;;;;13.07;9.93;;;16.00;99.90;;;;;;5045749;28;20041;-74
2023/08/30 11:34:00;;;;;;;15.18;11.68;;;16.00;99.90;;;;;;5014470;28;20107;-75
2023/08/30 11:36:35;;;;;;;16.15;11.30;;;15.90;99.90;;;;;;5042758;28;20048;-74
2023/08/30 11:39:00;;;;;;;22.60;12.15;;;15.80;99.90;;;;;;5026313;28;20120;-74
2023/08/30 11:41:26;;;;;;;15.55;12.10;;;15.80;99.90;;;;;;5047504;28;20074;-74
2023/08/30 11:43:53;;;;;;;13.20;10.40;;;15.70;99.90;;;;;;5024806;28;20215;-74
2023/08/30 11:46:19;;;;;;;17.17;12.02;;;15.70;99.90;;;;;;5044904;28;20041;-74
2023/08/30 11:48:47;;;;;;;12.02;9.32;;;15.80;99.90;;;;;;5021002;28;20033;-73
2023/08/30 11:51:13;;;;;;;12.95;9.80;;;15.80;99.90;;;;;;5026212;28;20052;-73
2023/08/30 11:53:39;;;;;;;11.95;7.57;;;15.70;99.90;;;;;;5012591;28;20076;-72
2023/08/30 11:56:08;;;;;;;8.80;7.10;;;15.70;99.90;;;;;;5034379;28;20045;-70
2023/08/30 11:58:35;;;;;;;8.70;6.90;;;15.80;99.90;;;;;;5043444;28;20508;-73
2023/08/30 12:01:02;;;;;;;8.82;6.00;;;15.80;99.90;;;;;;5046570;28;20759;-73
2023/08/30 12:03:28;;;;;;;8.77;6.90;;;15.70;99.90;;;;;;5041134;28;20049;-73
2023/08/30 12:05:55;;;;;;;8.88;7.13;;;15.80;99.90;;;;;;5038250;28;20109;-75
2023/08/30 12:08:23;;;;;;;9.65;8.38;;;15.90;99.90;;;;;;5042855;28;20036;-75
2023/08/30 12:10:49;;;;;;;9.75;7.85;;;16.00;99.90;;;;;;5014739;28;20702;-75
2023/08/30 12:13:32;;;;;;;9.55;7.25;;;16.10;99.90;;;;;;5045282;28;20068;-76
2023/08/30 12:15:59;;;;;;;10.68;7.45;;;16.20;99.90;;;;;;5046217;28;20181;-74
2023/08/30 12:18:31;;;;;;;10.07;7.10;;;16.30;99.90;;;;;;5028420;28;20052;-73
2023/08/30 12:21:02;;;;;;;9.43;7.57;;;16.30;99.90;;;;;;5029945;28;20195;-73
2023/08/30 12:23:30;;;;;;;7.75;6.53;;;16.40;99.90;;;;;;5049995;28;20622;-73
2023/08/30 12:26:04;;;;;;;8.45;5.97;;;16.40;99.90;;;;;;5045487;28;20476;-74
2023/08/30 12:28:35;;;;;;;9.85;5.82;;;16.50;99.90;;;;;;5042654;28;20048;-73
2023/08/30 12:31:01;;;;;;;7.05;5.80;;;16.60;99.90;;;;;;5043094;28;20101;-73
2023/08/30 12:33:28;;;;;;;8.93;7.25;;;16.60;99.90;;;;;;5046142;28;20045;-73